PWSweather.com
Personal Weather Stations
Station Observations

SaroSE

Lat: 57.5222, Lon: 11.947

Elevation: 35

Station Type: Davis VP2

http://www.lokaltvader.se/

High Low Average
Temperature 58.4°F14.7°C 50.4°F10.2°C 55.0°F12.8°C
Dew Point 51.7°F10.9°C 46.1°F7.8°C 49.4°F9.7°C
Winds 18.4 mph 29.6 kmh 1.2 mph 1.9 kmh 9.0 mph E14.5 kmh E
Wind Gusts 26.5 mph42.6 kmh 3.5 mph5.6 kmh 14.0 mph22.5 kmh
Humidity 86% 75% 81%
Pressure 29.87 in1011.5 mb 29.80 in1009.1 mb -
Precipitation 0.00 in0.0 mm - -
Hour Temp Dew Point Humidity Winds Wind Gusts Pressure Precip Precip Rate Daily Precip Total
12:00 AM 53.7°F12.1°C 49.3°F9.6°C 85% 2.3 mph ENE3.7 kmh ENE 3.5 mph5.6 kmh 29.83 in1010.2 mb - 0.00 in0.0 mm 0.00 in0.0 mm
12:15 AM 53.5°F11.9°C 49.1°F9.5°C 85% 4.6 mph ENE7.4 kmh ENE 5.8 mph9.3 kmh 29.84 in1010.5 mb - 0.00 in0.0 mm 0.00 in0.0 mm
12:30 AM 53.4°F11.9°C 49.3°F9.6°C 86% 4.6 mph ENE7.4 kmh ENE 9.2 mph14.8 kmh 29.84 in1010.5 mb - 0.00 in0.0 mm 0.00 in0.0 mm
12:45 AM 53.4°F11.9°C 49.3°F9.6°C 86% 3.5 mph E5.6 kmh E 11.5 mph18.5 kmh 29.84 in1010.5 mb - 0.00 in0.0 mm 0.00 in0.0 mm
01:00 AM 53.4°F11.9°C 49.0°F9.4°C 85% 5.8 mph ENE9.3 kmh ENE 11.5 mph18.5 kmh 29.84 in1010.5 mb - 0.00 in0.0 mm 0.00 in0.0 mm
01:15 AM 53.5°F11.9°C 49.1°F9.5°C 85% 6.9 mph ENE11.1 kmh ENE 10.4 mph16.7 kmh 29.84 in1010.5 mb - 0.00 in0.0 mm 0.00 in0.0 mm
01:30 AM 53.5°F11.9°C 49.1°F9.5°C 85% 4.6 mph E7.4 kmh E 8.1 mph13.0 kmh 29.84 in1010.5 mb - 0.00 in0.0 mm 0.00 in0.0 mm
01:45 AM 53.6°F12.0°C 48.9°F9.4°C 84% 8.1 mph E13.0 kmh E 12.7 mph20.4 kmh 29.84 in1010.5 mb - 0.00 in0.0 mm 0.00 in0.0 mm
02:00 AM 53.5°F11.9°C 48.8°F9.3°C 84% 4.6 mph E7.4 kmh E 11.5 mph18.5 kmh 29.84 in1010.5 mb - 0.00 in0.0 mm 0.00 in0.0 mm
02:15 AM 53.5°F11.9°C 48.5°F9.2°C 83% 6.9 mph E11.1 kmh E 11.5 mph18.5 kmh 29.84 in1010.5 mb - 0.00 in0.0 mm 0.00 in0.0 mm
02:30 AM 53.4°F11.9°C 48.4°F9.1°C 83% 4.6 mph E7.4 kmh E 9.2 mph14.8 kmh 29.83 in1010.2 mb - 0.00 in0.0 mm 0.00 in0.0 mm
02:45 AM 53.3°F11.8°C 48.3°F9.1°C 83% 5.8 mph ENE9.3 kmh ENE 15.0 mph24.1 kmh 29.83 in1010.2 mb - 0.00 in0.0 mm 0.00 in0.0 mm
03:00 AM 53.1°F11.7°C 48.1°F8.9°C 83% 15.0 mph E24.1 kmh E 20.7 mph33.3 kmh 29.83 in1010.2 mb - 0.00 in0.0 mm 0.00 in0.0 mm
03:15 AM 52.9°F11.6°C 47.9°F8.8°C 83% 5.8 mph ENE9.3 kmh ENE 11.5 mph18.5 kmh 29.83 in1010.2 mb - 0.00 in0.0 mm 0.00 in0.0 mm
03:30 AM 52.8°F11.6°C 47.8°F8.8°C 83% 3.5 mph E5.6 kmh E 3.5 mph5.6 kmh 29.84 in1010.5 mb - 0.00 in0.0 mm 0.00 in0.0 mm
03:45 AM 52.5°F11.4°C 47.2°F8.4°C 82% 9.2 mph E14.8 kmh E 12.7 mph20.4 kmh 29.84 in1010.5 mb - 0.00 in0.0 mm 0.00 in0.0 mm
04:00 AM 52.2°F11.2°C 47.2°F8.4°C 83% 3.5 mph ENE5.6 kmh ENE 3.5 mph5.6 kmh 29.84 in1010.5 mb - 0.00 in0.0 mm 0.00 in0.0 mm
04:15 AM 51.9°F11.1°C 46.9°F8.3°C 83% 8.1 mph E13.0 kmh E 11.5 mph18.5 kmh 29.83 in1010.2 mb - 0.00 in0.0 mm 0.00 in0.0 mm
04:30 AM 51.6°F10.9°C 46.6°F8.1°C 83% 5.8 mph E9.3 kmh E 17.3 mph27.8 kmh 29.84 in1010.5 mb - 0.00 in0.0 mm 0.00 in0.0 mm
04:45 AM 51.1°F10.6°C 46.4°F8.0°C 84% 5.8 mph E9.3 kmh E 15.0 mph24.1 kmh 29.84 in1010.5 mb - 0.00 in0.0 mm 0.00 in0.0 mm
05:00 AM 50.7°F10.4°C 46.1°F7.8°C 84% 10.4 mph E16.7 kmh E 12.7 mph20.4 kmh 29.84 in1010.5 mb - 0.00 in0.0 mm 0.00 in0.0 mm
05:15 AM 50.6°F10.3°C 46.3°F7.9°C 85% 9.2 mph ESE14.8 kmh ESE 16.1 mph25.9 kmh 29.84 in1010.5 mb - 0.00 in0.0 mm 0.00 in0.0 mm
05:30 AM 50.4°F10.2°C 46.1°F7.8°C 85% 4.6 mph E7.4 kmh E 8.1 mph13.0 kmh 29.85 in1010.8 mb - 0.00 in0.0 mm 0.00 in0.0 mm
05:45 AM 50.5°F10.3°C 46.2°F7.9°C 85% 11.5 mph E18.5 kmh E 17.3 mph27.8 kmh 29.85 in1010.8 mb - 0.00 in0.0 mm 0.00 in0.0 mm
06:00 AM 50.6°F10.3°C 46.3°F7.9°C 85% 13.8 mph E22.2 kmh E 18.4 mph29.6 kmh 29.85 in1010.8 mb - 0.00 in0.0 mm 0.00 in0.0 mm
06:15 AM 50.5°F10.3°C 46.2°F7.9°C 85% 15.0 mph E24.1 kmh E 19.6 mph31.5 kmh 29.85 in1010.8 mb - 0.00 in0.0 mm 0.00 in0.0 mm
06:30 AM 50.4°F10.2°C 46.4°F8.0°C 86% 12.7 mph ESE20.4 kmh ESE 18.4 mph29.6 kmh 29.86 in1011.2 mb - 0.00 in0.0 mm 0.00 in0.0 mm
06:45 AM 50.4°F10.2°C 46.4°F8.0°C 86% 5.8 mph E9.3 kmh E 10.4 mph16.7 kmh 29.86 in1011.2 mb - 0.00 in0.0 mm 0.00 in0.0 mm
07:00 AM 50.6°F10.3°C 46.6°F8.1°C 86% 10.4 mph E16.7 kmh E 15.0 mph24.1 kmh 29.86 in1011.2 mb - 0.00 in0.0 mm 0.00 in0.0 mm
07:15 AM 50.8°F10.4°C 46.7°F8.2°C 86% 6.9 mph E11.1 kmh E 9.2 mph14.8 kmh 29.86 in1011.2 mb - 0.00 in0.0 mm 0.00 in0.0 mm
07:30 AM 51.0°F10.6°C 46.9°F8.3°C 86% 6.9 mph E11.1 kmh E 13.8 mph22.2 kmh 29.86 in1011.2 mb - 0.00 in0.0 mm 0.00 in0.0 mm
07:45 AM 51.2°F10.7°C 47.2°F8.4°C 86% 10.4 mph E16.7 kmh E 16.1 mph25.9 kmh 29.86 in1011.2 mb - 0.00 in0.0 mm 0.00 in0.0 mm
08:00 AM 51.5°F10.8°C 47.4°F8.6°C 86% 11.5 mph E18.5 kmh E 18.4 mph29.6 kmh 29.86 in1011.2 mb - 0.00 in0.0 mm 0.00 in0.0 mm
08:15 AM 51.7°F10.9°C 47.6°F8.7°C 86% 8.1 mph E13.0 kmh E 13.8 mph22.2 kmh 29.87 in1011.5 mb - 0.00 in0.0 mm 0.00 in0.0 mm
08:30 AM 52.0°F11.1°C 47.6°F8.7°C 85% 6.9 mph ESE11.1 kmh ESE 16.1 mph25.9 kmh 29.87 in1011.5 mb - 0.00 in0.0 mm 0.00 in0.0 mm
08:45 AM 52.3°F11.3°C 47.9°F8.8°C 85% 4.6 mph E7.4 kmh E 10.4 mph16.7 kmh 29.87 in1011.5 mb - 0.00 in0.0 mm 0.00 in0.0 mm
09:00 AM 52.9°F11.6°C 48.2°F9.0°C 84% 10.4 mph E16.7 kmh E 16.1 mph25.9 kmh 29.87 in1011.5 mb - 0.00 in0.0 mm 0.00 in0.0 mm
09:15 AM 53.1°F11.7°C 48.1°F8.9°C 83% 10.4 mph E16.7 kmh E 16.1 mph25.9 kmh 29.87 in1011.5 mb - 0.00 in0.0 mm 0.00 in0.0 mm
09:30 AM 53.5°F11.9°C 48.1°F8.9°C 82% 4.6 mph E7.4 kmh E 9.2 mph14.8 kmh 29.87 in1011.5 mb - 0.00 in0.0 mm 0.00 in0.0 mm
09:45 AM 53.8°F12.1°C 48.8°F9.3°C 83% 13.8 mph E22.2 kmh E 17.3 mph27.8 kmh 29.87 in1011.5 mb - 0.00 in0.0 mm 0.00 in0.0 mm
10:00 AM 54.5°F12.5°C 49.1°F9.5°C 82% 18.4 mph ESE29.6 kmh ESE 26.5 mph42.6 kmh 29.87 in1011.5 mb - 0.00 in0.0 mm 0.00 in0.0 mm
10:15 AM 55.3°F12.9°C 49.6°F9.8°C 81% 13.8 mph E22.2 kmh E 17.3 mph27.8 kmh 29.87 in1011.5 mb - 0.00 in0.0 mm 0.00 in0.0 mm
10:30 AM 55.3°F12.9°C 49.2°F9.6°C 80% 11.5 mph E18.5 kmh E 17.3 mph27.8 kmh 29.87 in1011.5 mb - 0.00 in0.0 mm 0.00 in0.0 mm
10:45 AM 55.2°F12.9°C 49.1°F9.5°C 80% 10.4 mph E16.7 kmh E 19.6 mph31.5 kmh 29.87 in1011.5 mb - 0.00 in0.0 mm 0.00 in0.0 mm
11:00 AM 55.3°F12.9°C 49.2°F9.6°C 80% 9.2 mph ESE14.8 kmh ESE 17.3 mph27.8 kmh 29.87 in1011.5 mb - 0.00 in0.0 mm 0.00 in0.0 mm
11:15 AM 55.4°F13.0°C 49.3°F9.6°C 80% 9.2 mph E14.8 kmh E 21.9 mph35.2 kmh 29.87 in1011.5 mb - 0.00 in0.0 mm 0.00 in0.0 mm
11:30 AM 55.3°F12.9°C 49.2°F9.6°C 80% 12.7 mph ESE20.4 kmh ESE 19.6 mph31.5 kmh 29.87 in1011.5 mb - 0.00 in0.0 mm 0.00 in0.0 mm
11:45 AM 55.6°F13.1°C 49.5°F9.7°C 80% 13.8 mph E22.2 kmh E 16.1 mph25.9 kmh 29.87 in1011.5 mb - 0.00 in0.0 mm 0.00 in0.0 mm
12:00 PM 56.0°F13.3°C 49.6°F9.8°C 79% 13.8 mph E22.2 kmh E 21.9 mph35.2 kmh 29.87 in1011.5 mb - 0.00 in0.0 mm 0.00 in0.0 mm
12:15 PM 57.0°F13.9°C 49.9°F9.9°C 77% 17.3 mph SE27.8 kmh SE 18.4 mph29.6 kmh 29.87 in1011.5 mb - 0.00 in0.0 mm 0.00 in0.0 mm
12:30 PM 57.8°F14.3°C 50.2°F10.1°C 76% 13.8 mph E22.2 kmh E 20.7 mph33.3 kmh 29.87 in1011.5 mb - 0.00 in0.0 mm 0.00 in0.0 mm
12:45 PM 58.3°F14.6°C 50.4°F10.2°C 75% 10.4 mph ESE16.7 kmh ESE 12.7 mph20.4 kmh 29.86 in1011.2 mb - 0.00 in0.0 mm 0.00 in0.0 mm
01:00 PM 57.9°F14.4°C 50.0°F10.0°C 75% 10.4 mph E16.7 kmh E 15.0 mph24.1 kmh 29.86 in1011.2 mb - 0.00 in0.0 mm 0.00 in0.0 mm
01:15 PM 58.0°F14.4°C 50.1°F10.1°C 75% 10.4 mph E16.7 kmh E 16.1 mph25.9 kmh 29.86 in1011.2 mb - 0.00 in0.0 mm 0.00 in0.0 mm
01:30 PM 57.7°F14.3°C 50.1°F10.1°C 76% 2.3 mph E3.7 kmh E 3.5 mph5.6 kmh 29.86 in1011.2 mb - 0.00 in0.0 mm 0.00 in0.0 mm
01:45 PM 57.6°F14.2°C 50.4°F10.2°C 77% 4.6 mph E7.4 kmh E 11.5 mph18.5 kmh 29.86 in1011.2 mb - 0.00 in0.0 mm 0.00 in0.0 mm
02:00 PM 57.8°F14.3°C 50.3°F10.2°C 76% 5.8 mph E9.3 kmh E 15.0 mph24.1 kmh 29.86 in1011.2 mb - 0.00 in0.0 mm 0.00 in0.0 mm
02:15 PM 58.0°F14.4°C 50.1°F10.1°C 75% 3.5 mph E5.6 kmh E 15.0 mph24.1 kmh 29.86 in1011.2 mb - 0.00 in0.0 mm 0.00 in0.0 mm
02:30 PM 58.1°F14.5°C 50.6°F10.3°C 76% 8.1 mph E13.0 kmh E 11.5 mph18.5 kmh 29.86 in1011.2 mb - 0.00 in0.0 mm 0.00 in0.0 mm
02:45 PM 58.2°F14.6°C 50.7°F10.4°C 76% 8.1 mph ESE13.0 kmh ESE 11.5 mph18.5 kmh 29.85 in1010.8 mb - 0.00 in0.0 mm 0.00 in0.0 mm
03:00 PM 58.4°F14.7°C 50.9°F10.5°C 76% 4.6 mph ESE7.4 kmh ESE 5.8 mph9.3 kmh 29.86 in1011.2 mb - 0.00 in0.0 mm 0.00 in0.0 mm
03:15 PM 58.3°F14.6°C 50.8°F10.4°C 76% 8.1 mph SE13.0 kmh SE 11.5 mph18.5 kmh 29.86 in1011.2 mb - 0.00 in0.0 mm 0.00 in0.0 mm
03:30 PM 58.2°F14.6°C 50.6°F10.3°C 76% 8.1 mph ESE13.0 kmh ESE 11.5 mph18.5 kmh 29.86 in1011.2 mb - 0.00 in0.0 mm 0.00 in0.0 mm
03:45 PM 58.1°F14.5°C 50.6°F10.3°C 76% 5.8 mph E9.3 kmh E 9.2 mph14.8 kmh 29.86 in1011.2 mb - 0.00 in0.0 mm 0.00 in0.0 mm
04:00 PM 58.1°F14.5°C 50.9°F10.5°C 77% 5.8 mph E9.3 kmh E 6.9 mph11.1 kmh 29.86 in1011.2 mb - 0.00 in0.0 mm 0.00 in0.0 mm
04:15 PM 58.0°F14.4°C 50.8°F10.4°C 77% 1.2 mph ENE1.9 kmh ENE 3.5 mph5.6 kmh 29.85 in1010.8 mb - 0.00 in0.0 mm 0.00 in0.0 mm
04:30 PM 57.8°F14.3°C 51.0°F10.6°C 78% 4.6 mph E7.4 kmh E 5.8 mph9.3 kmh 29.85 in1010.8 mb - 0.00 in0.0 mm 0.00 in0.0 mm
04:45 PM 57.8°F14.3°C 51.0°F10.6°C 78% 3.5 mph E5.6 kmh E 5.8 mph9.3 kmh 29.85 in1010.8 mb - 0.00 in0.0 mm 0.00 in0.0 mm
05:00 PM 57.8°F14.3°C 51.0°F10.6°C 78% 5.8 mph E9.3 kmh E 9.2 mph14.8 kmh 29.85 in1010.8 mb - 0.00 in0.0 mm 0.00 in0.0 mm
05:15 PM 57.8°F14.3°C 51.0°F10.6°C 78% 5.8 mph E9.3 kmh E 10.4 mph16.7 kmh 29.84 in1010.5 mb - 0.00 in0.0 mm 0.00 in0.0 mm
05:30 PM 57.8°F14.3°C 51.0°F10.6°C 78% 5.8 mph E9.3 kmh E 10.4 mph16.7 kmh 29.84 in1010.5 mb - 0.00 in0.0 mm 0.00 in0.0 mm
05:45 PM 57.7°F14.3°C 50.9°F10.5°C 78% 8.1 mph E13.0 kmh E 13.8 mph22.2 kmh 29.84 in1010.5 mb - 0.00 in0.0 mm 0.00 in0.0 mm
06:00 PM 57.8°F14.3°C 51.0°F10.6°C 78% 12.7 mph ESE20.4 kmh ESE 17.3 mph27.8 kmh 29.84 in1010.5 mb - 0.00 in0.0 mm 0.00 in0.0 mm
06:15 PM 57.8°F14.3°C 51.0°F10.6°C 78% 11.5 mph ESE18.5 kmh ESE 15.0 mph24.1 kmh 29.83 in1010.2 mb - 0.00 in0.0 mm 0.00 in0.0 mm
06:30 PM 57.8°F14.3°C 51.0°F10.6°C 78% 6.9 mph E11.1 kmh E 10.4 mph16.7 kmh 29.83 in1010.2 mb - 0.00 in0.0 mm 0.00 in0.0 mm
06:45 PM 57.7°F14.3°C 51.3°F10.7°C 79% 9.2 mph ESE14.8 kmh ESE 11.5 mph18.5 kmh 29.83 in1010.2 mb - 0.00 in0.0 mm 0.00 in0.0 mm
07:00 PM 57.7°F14.3°C 51.2°F10.7°C 79% 10.4 mph ESE16.7 kmh ESE 11.5 mph18.5 kmh 29.83 in1010.2 mb - 0.00 in0.0 mm 0.00 in0.0 mm
07:15 PM 57.6°F14.2°C 51.1°F10.6°C 79% 12.7 mph ESE20.4 kmh ESE 15.0 mph24.1 kmh 29.83 in1010.2 mb - 0.00 in0.0 mm 0.00 in0.0 mm
07:30 PM 57.6°F14.2°C 51.2°F10.7°C 79% 12.7 mph ESE20.4 kmh ESE 17.3 mph27.8 kmh 29.83 in1010.2 mb - 0.00 in0.0 mm 0.00 in0.0 mm
07:45 PM 57.6°F14.2°C 51.5°F10.8°C 80% 12.7 mph ESE20.4 kmh ESE 19.6 mph31.5 kmh 29.83 in1010.2 mb - 0.00 in0.0 mm 0.00 in0.0 mm
08:00 PM 57.4°F14.1°C 51.3°F10.7°C 80% 15.0 mph ESE24.1 kmh ESE 18.4 mph29.6 kmh 29.83 in1010.2 mb - 0.00 in0.0 mm 0.00 in0.0 mm
08:15 PM 57.2°F14.0°C 51.1°F10.6°C 80% 12.7 mph ESE20.4 kmh ESE 16.1 mph25.9 kmh 29.83 in1010.2 mb - 0.00 in0.0 mm 0.00 in0.0 mm
08:30 PM 57.1°F13.9°C 51.0°F10.6°C 80% 12.7 mph ESE20.4 kmh ESE 16.1 mph25.9 kmh 29.83 in1010.2 mb - 0.00 in0.0 mm 0.00 in0.0 mm
08:45 PM 57.1°F13.9°C 51.3°F10.7°C 81% 13.8 mph ESE22.2 kmh ESE 16.1 mph25.9 kmh 29.83 in1010.2 mb - 0.00 in0.0 mm 0.00 in0.0 mm
09:00 PM 57.0°F13.9°C 51.6°F10.9°C 82% 6.9 mph ESE11.1 kmh ESE 11.5 mph18.5 kmh 29.83 in1010.2 mb - 0.00 in0.0 mm 0.00 in0.0 mm
09:15 PM 56.3°F13.5°C 51.5°F10.8°C 84% 10.4 mph ESE16.7 kmh ESE 11.5 mph18.5 kmh 29.83 in1010.2 mb - 0.00 in0.0 mm 0.00 in0.0 mm
09:30 PM 56.5°F13.6°C 51.7°F10.9°C 84% 10.4 mph SE16.7 kmh SE 12.7 mph20.4 kmh 29.83 in1010.2 mb - 0.00 in0.0 mm 0.00 in0.0 mm
09:45 PM 56.5°F13.6°C 51.7°F10.9°C 84% 12.7 mph SE20.4 kmh SE 15.0 mph24.1 kmh 29.83 in1010.2 mb - 0.00 in0.0 mm 0.00 in0.0 mm
10:00 PM 56.3°F13.5°C 51.5°F10.8°C 84% 9.2 mph ESE14.8 kmh ESE 18.4 mph29.6 kmh 29.82 in1009.8 mb - 0.00 in0.0 mm 0.00 in0.0 mm
10:15 PM 56.1°F13.4°C 51.3°F10.7°C 84% 11.5 mph ESE18.5 kmh ESE 16.1 mph25.9 kmh 29.82 in1009.8 mb - 0.00 in0.0 mm 0.00 in0.0 mm
10:30 PM 56.2°F13.4°C 51.1°F10.6°C 83% 16.1 mph SE25.9 kmh SE 18.4 mph29.6 kmh 29.82 in1009.8 mb - 0.00 in0.0 mm 0.00 in0.0 mm
10:45 PM 56.2°F13.4°C 50.8°F10.4°C 82% 15.0 mph SE24.1 kmh SE 19.6 mph31.5 kmh 29.82 in1009.8 mb - 0.00 in0.0 mm 0.00 in0.0 mm
11:00 PM 56.2°F13.4°C 50.4°F10.2°C 81% 12.7 mph ESE20.4 kmh ESE 16.1 mph25.9 kmh 29.82 in1009.8 mb - 0.00 in0.0 mm 0.00 in0.0 mm
11:15 PM 56.2°F13.4°C 50.4°F10.2°C 81% 16.1 mph SE25.9 kmh SE 26.5 mph42.6 kmh 29.81 in1009.5 mb - 0.00 in0.0 mm 0.00 in0.0 mm
11:30 PM 55.8°F13.2°C 50.4°F10.2°C 82% 6.9 mph ESE11.1 kmh ESE 18.4 mph29.6 kmh 29.80 in1009.1 mb - 0.00 in0.0 mm 0.00 in0.0 mm
11:45 PM 55.4°F13.0°C 50.4°F10.2°C 83% 13.8 mph ESE22.2 kmh ESE 19.6 mph31.5 kmh 29.80 in1009.1 mb - 0.00 in0.0 mm 0.00 in0.0 mm